Deerfield, New Jersey
Current Conditions -  °F | °C
As of 11:54 AM on Friday 24 Oct 2014 (Local Time) from KMIV Reporting Station
Few Clouds Few Clouds  
Wind Chill: 63°   Ceiling: Unl
Heat Index: 63°   Visibility: 10mi
Dew Point: 46°   Wind: 15mph
Humidity: 54%   Direction: 300°WNW
Pressure: 29.87"   Gusts: NA
Location:  39.5314°N, 75.2331°W
Report Text: KMIV 241554Z AUTO 30013KT 10SM FEW042 17/08 A2987 RMK AO2 SLP112 T01720078
Loading
Personal Weather Stations






























Interactive Weather Map
Tropical Storm Tracking
New forecast layout! Learn more

10-Day Weather Forecast

Advertisements
Track Severe Weather on mobile